createdAt,value
2023-05-25T00:01:26.468Z,100.00
2023-05-25T00:03:55.570Z,100.00
2023-05-25T00:06:23.107Z,100.00
2023-05-25T00:08:51.725Z,100.00
2023-05-25T00:11:19.700Z,100.00
2023-05-25T00:13:48.592Z,100.00
2023-05-25T00:16:16.117Z,100.00
2023-05-25T00:18:43.761Z,100.00
2023-05-25T00:21:12.052Z,100.00
2023-05-25T00:23:39.646Z,100.00
2023-05-25T00:26:07.017Z,100.00
2023-05-25T00:28:34.473Z,100.00
2023-05-25T00:31:02.002Z,100.00
2023-05-25T00:33:29.871Z,100.00
2023-05-25T00:35:58.690Z,100.00
2023-05-25T00:38:26.298Z,100.00
2023-05-25T00:40:57.315Z,100.00
2023-05-25T00:43:24.779Z,100.00
2023-05-25T00:59:11.073Z,100.00
2023-05-25T01:01:41.470Z,100.00
2023-05-25T01:04:15.101Z,100.00
2023-05-25T01:06:44.144Z,100.00
2023-05-25T01:09:12.242Z,100.00
2023-05-25T01:11:41.268Z,100.00
2023-05-25T01:14:08.993Z,100.00
2023-05-25T01:16:37.780Z,100.00
2023-05-25T01:19:05.282Z,100.00
2023-05-25T01:21:42.191Z,100.00
2023-05-25T01:24:22.930Z,100.00
2023-05-25T01:26:55.834Z,100.00
2023-05-25T01:29:24.920Z,100.00
2023-05-25T01:31:52.448Z,100.00
2023-05-25T01:34:20.970Z,100.00
2023-05-25T01:36:48.212Z,100.00
2023-05-25T01:39:15.752Z,100.00
2023-05-25T01:41:43.166Z,100.00
2023-05-25T01:44:10.545Z,100.00
2023-05-25T01:46:39.066Z,100.00
2023-05-25T01:49:16.843Z,100.00
2023-05-25T01:51:58.790Z,100.00
2023-05-25T01:54:35.860Z,100.00
2023-05-25T01:57:05.550Z,100.00
2023-05-25T01:59:32.899Z,100.00
2023-05-25T02:02:00.249Z,100.00
2023-05-25T02:04:27.618Z,100.00
2023-05-25T02:06:55.656Z,100.00
2023-05-25T02:09:22.942Z,100.00
2023-05-25T02:11:51.439Z,100.00
2023-05-25T02:14:18.810Z,100.00
2023-05-25T02:16:46.159Z,100.00
2023-05-25T02:19:15.061Z,100.00
2023-05-25T02:21:42.624Z,100.00
2023-05-25T02:24:10.293Z,100.00
2023-05-25T02:26:38.227Z,100.00
2023-05-25T02:29:06.011Z,100.00
2023-05-25T02:31:33.623Z,100.00
2023-05-25T02:34:01.930Z,100.00
2023-05-25T02:36:29.269Z,100.00
2023-05-25T02:38:56.583Z,100.00
2023-05-25T02:41:26.331Z,100.00
2023-05-25T02:43:53.878Z,100.00
2023-05-25T02:46:22.951Z,100.00
2023-05-25T02:48:50.574Z,100.00
2023-05-25T02:51:17.963Z,100.00
2023-05-25T02:53:45.775Z,100.00
2023-05-25T02:56:13.078Z,100.00
2023-05-25T02:58:40.890Z,100.00
2023-05-25T03:01:19.009Z,100.00
2023-05-25T03:03:52.715Z,100.00
2023-05-25T03:06:26.360Z,100.00
2023-05-25T03:09:07.283Z,100.00
2023-05-25T03:11:34.746Z,100.00
2023-05-25T03:14:03.141Z,100.00
2023-05-25T03:16:30.626Z,100.00
2023-05-25T03:18:58.803Z,100.00
2023-05-25T03:21:26.164Z,100.00
2023-05-25T03:23:54.515Z,100.00
2023-05-25T03:26:21.892Z,100.00
2023-05-25T03:28:49.387Z,100.00
2023-05-25T03:31:16.840Z,100.00
2023-05-25T03:33:45.495Z,100.00
2023-05-25T03:36:13.826Z,100.00
2023-05-25T03:38:42.696Z,100.00
2023-05-25T03:41:10.118Z,100.00
2023-05-25T03:43:37.607Z,100.00
2023-05-25T03:46:06.001Z,100.00
2023-05-25T03:48:33.499Z,100.00
2023-05-25T03:51:01.166Z,100.00
2023-05-25T03:53:28.555Z,100.00
2023-05-25T03:55:56.189Z,100.00
2023-05-25T03:58:23.515Z,100.00
2023-05-25T04:00:51.933Z,100.00
2023-05-25T04:03:20.650Z,100.00
2023-05-25T04:05:48.239Z,100.00
2023-05-25T04:08:18.052Z,100.00
2023-05-25T04:10:46.345Z,100.00
2023-05-25T04:13:13.825Z,100.00
2023-05-25T04:15:41.434Z,100.00
2023-05-25T04:18:13.210Z,100.00
2023-05-25T04:20:40.871Z,100.00
2023-05-25T04:23:11.217Z,100.00
2023-05-25T04:25:39.302Z,100.00
2023-05-25T04:28:08.582Z,100.00
2023-05-25T04:30:57.241Z,100.00
2023-05-25T04:33:39.302Z,100.00
2023-05-25T04:36:22.758Z,97.43
2023-05-25T04:38:52.283Z,97.25
2023-05-25T04:41:19.911Z,97.02
2023-05-25T04:44:06.964Z,97.68
2023-05-25T04:46:40.828Z,97.38
2023-05-25T04:49:13.413Z,95.81
2023-05-25T04:51:41.326Z,91.97
2023-05-25T04:54:09.098Z,91.05
2023-05-25T04:56:36.496Z,90.01
2023-05-25T04:59:04.461Z,87.56
2023-05-25T05:01:34.378Z,84.98
2023-05-25T05:04:03.659Z,83.49
2023-05-25T05:06:32.353Z,82.22
2023-05-25T05:09:00.512Z,79.88
2023-05-25T05:11:28.839Z,77.77
2023-05-25T05:13:56.997Z,74.58
2023-05-25T05:16:24.646Z,72.22
2023-05-25T05:18:52.134Z,71.25
2023-05-25T05:21:21.318Z,72.71
2023-05-25T05:23:50.261Z,72.59
2023-05-25T05:26:18.321Z,71.42
2023-05-25T05:28:45.722Z,71.57
2023-05-25T05:31:13.310Z,70.07
2023-05-25T05:33:41.999Z,67.57
2023-05-25T05:36:09.476Z,65.89
2023-05-25T05:38:39.341Z,65.56
2023-05-25T05:41:13.496Z,65.64
2023-05-25T05:43:43.790Z,65.27
2023-05-25T05:46:11.217Z,65.67
2023-05-25T05:48:40.345Z,65.22
2023-05-25T05:51:07.748Z,64.68
2023-05-25T05:53:38.177Z,62.45
2023-05-25T05:56:07.193Z,62.43
2023-05-25T05:58:34.795Z,63.01
2023-05-25T06:01:03.433Z,62.67
2023-05-25T06:03:31.228Z,61.89
2023-05-25T06:05:58.696Z,62.05
2023-05-25T06:08:27.557Z,61.10
2023-05-25T06:10:56.167Z,60.20
2023-05-25T06:13:23.634Z,62.01
2023-05-25T06:15:51.047Z,61.14
2023-05-25T06:18:22.052Z,59.26
2023-05-25T06:20:49.577Z,58.42
2023-05-25T06:23:19.045Z,57.83
2023-05-25T06:25:47.147Z,56.96
2023-05-25T06:28:15.133Z,57.97
2023-05-25T06:30:42.690Z,56.77
2023-05-25T06:33:11.344Z,54.09
2023-05-25T06:35:38.810Z,53.63
2023-05-25T06:38:06.398Z,53.32
2023-05-25T06:40:33.725Z,52.50
2023-05-25T06:43:01.233Z,52.01
2023-05-25T06:45:41.384Z,49.57
2023-05-25T06:48:09.366Z,48.93
2023-05-25T06:50:36.853Z,49.15
2023-05-25T06:53:04.204Z,48.66
2023-05-25T06:55:31.494Z,49.89
2023-05-25T06:57:59.009Z,50.16
2023-05-25T07:00:26.846Z,48.98
2023-05-25T07:02:54.481Z,49.04
2023-05-25T07:05:22.107Z,48.41
2023-05-25T07:07:49.441Z,47.08
2023-05-25T07:10:17.183Z,45.69
2023-05-25T07:12:44.632Z,45.43
2023-05-25T07:15:13.477Z,45.48
2023-05-25T07:17:41.026Z,45.90
2023-05-25T07:20:09.077Z,46.82
2023-05-25T07:22:37.048Z,47.78
2023-05-25T07:25:04.876Z,46.14
2023-05-25T07:27:33.867Z,45.05
2023-05-25T07:30:01.340Z,44.47
2023-05-25T07:32:28.824Z,44.83
2023-05-25T07:34:56.275Z,43.78
2023-05-25T07:37:24.221Z,43.53
2023-05-25T07:39:51.663Z,44.40
2023-05-25T07:42:21.194Z,43.87
2023-05-25T07:44:48.900Z,43.33
2023-05-25T08:12:07.778Z,40.43
2023-05-25T08:29:11.706Z,37.89
2023-05-25T08:31:39.518Z,37.70
2023-05-25T08:34:07.361Z,37.05
2023-05-25T08:36:36.253Z,37.26
2023-05-25T08:39:04.949Z,36.44
2023-05-25T08:41:32.899Z,36.39
2023-05-25T08:44:06.433Z,36.19
2023-05-25T08:46:34.001Z,34.99
2023-05-25T08:49:08.709Z,34.48
2023-05-25T08:51:38.059Z,33.74
2023-05-25T08:54:10.379Z,33.60
2023-05-25T08:56:52.156Z,33.81
2023-05-25T08:59:28.933Z,33.28
2023-05-25T09:02:02.974Z,33.96
2023-05-25T09:04:31.236Z,35.19
2023-05-25T09:07:09.665Z,36.03
2023-05-25T09:09:39.874Z,36.39
2023-05-25T09:12:08.578Z,35.46
2023-05-25T09:14:45.666Z,35.08
2023-05-25T09:17:17.390Z,32.20
2023-05-25T09:19:45.841Z,32.25
2023-05-25T09:22:16.414Z,31.62
2023-05-25T09:24:45.632Z,31.67
2023-05-25T09:27:17.628Z,32.22
2023-05-25T09:29:47.620Z,32.92
2023-05-25T09:32:15.975Z,32.89
2023-05-25T09:34:45.159Z,32.47
2023-05-25T09:37:14.076Z,32.96
2023-05-25T09:39:42.634Z,34.20
2023-05-25T09:42:10.957Z,33.30
2023-05-25T09:44:38.590Z,32.13
2023-05-25T09:47:06.570Z,31.15
2023-05-25T09:49:34.106Z,30.31
2023-05-25T09:52:01.911Z,31.01
2023-05-25T09:54:29.380Z,31.21
2023-05-25T09:56:56.789Z,30.54
2023-05-25T09:59:24.632Z,30.83
2023-05-25T10:01:53.730Z,29.72
2023-05-25T10:17:14.375Z,26.92
2023-05-25T10:19:54.017Z,28.06
2023-05-25T10:22:33.790Z,26.49
2023-05-25T10:25:07.829Z,26.57
2023-05-25T10:27:40.098Z,26.26
2023-05-25T10:30:08.952Z,27.07
2023-05-25T10:32:37.160Z,27.21
2023-05-25T10:35:07.725Z,27.11
2023-05-25T10:37:35.272Z,28.01
2023-05-25T10:40:03.357Z,26.42
2023-05-25T10:42:30.712Z,26.46
2023-05-25T10:44:58.084Z,27.06
2023-05-25T10:47:25.546Z,28.45
2023-05-25T10:50:03.080Z,28.87
2023-05-25T10:52:31.529Z,27.98
2023-05-25T10:55:02.102Z,28.10
2023-05-25T10:57:29.549Z,27.68
2023-05-25T11:00:07.104Z,28.92
2023-05-25T11:02:51.496Z,27.88
2023-05-25T11:05:28.864Z,26.68
2023-05-25T11:08:00.285Z,28.37
2023-05-25T11:10:49.837Z,32.74
2023-05-25T11:13:41.311Z,35.32
2023-05-25T11:16:17.680Z,36.82
2023-05-25T11:18:50.472Z,37.66
2023-05-25T11:21:24.009Z,38.71
2023-05-25T11:23:55.265Z,40.13
2023-05-25T11:26:33.860Z,41.21
2023-05-25T11:29:02.290Z,42.07
2023-05-25T11:31:35.185Z,42.22
2023-05-25T11:34:05.077Z,42.20
2023-05-25T11:36:34.181Z,42.74
2023-05-25T11:39:06.626Z,43.63
2023-05-25T11:41:36.539Z,42.90
2023-05-25T11:44:05.830Z,42.91
2023-05-25T11:46:35.048Z,44.17
2023-05-25T11:49:02.454Z,44.29
2023-05-25T11:51:30.409Z,44.50
2023-05-25T11:53:58.103Z,44.82
2023-05-25T11:56:35.153Z,44.53
2023-05-25T11:59:03.218Z,44.37
2023-05-25T12:01:32.125Z,44.64
2023-05-25T12:04:05.062Z,45.02
2023-05-25T12:06:39.970Z,44.40
2023-05-25T12:09:12.109Z,44.01
2023-05-25T12:11:39.489Z,43.97
2023-05-25T12:14:07.234Z,44.06
2023-05-25T12:16:35.269Z,43.74
2023-05-25T12:19:02.639Z,44.46
2023-05-25T12:21:29.930Z,45.50
2023-05-25T12:23:57.236Z,45.66
2023-05-25T12:26:24.694Z,44.87
2023-05-25T12:29:04.865Z,45.44
2023-05-25T12:31:36.415Z,45.64
2023-05-25T12:34:15.848Z,45.60
2023-05-25T12:36:48.057Z,46.49
2023-05-25T12:39:16.502Z,46.33
2023-05-25T12:41:49.451Z,46.39
2023-05-25T12:44:25.492Z,46.72
2023-05-25T12:46:54.331Z,46.63
2023-05-25T12:49:32.248Z,46.32
2023-05-25T12:52:02.432Z,45.56
2023-05-25T12:54:49.882Z,46.48
2023-05-25T12:57:17.970Z,45.92
2023-05-25T12:59:46.443Z,45.48
2023-05-25T13:02:14.698Z,45.15
2023-05-25T13:04:42.231Z,45.28
2023-05-25T13:07:10.170Z,45.32
2023-05-25T13:09:37.951Z,46.23
2023-05-25T13:12:06.408Z,45.80
2023-05-25T13:14:33.868Z,45.42
2023-05-25T13:17:01.592Z,44.37
2023-05-25T13:19:29.123Z,45.30
2023-05-25T13:21:56.823Z,44.89
2023-05-25T13:24:24.873Z,45.27
2023-05-25T13:26:52.442Z,44.92
2023-05-25T13:29:20.123Z,44.44
2023-05-25T13:31:48.330Z,43.97
2023-05-25T13:34:16.001Z,43.88
2023-05-25T13:36:43.542Z,43.60
2023-05-25T13:39:13.923Z,44.08
2023-05-25T13:41:42.052Z,44.50
2023-05-25T13:44:11.382Z,44.47
2023-05-25T13:46:39.189Z,44.53
2023-05-25T13:49:07.316Z,45.36
2023-05-25T13:51:35.963Z,45.37
2023-05-25T13:54:03.654Z,45.87
2023-05-25T13:56:31.335Z,46.53
2023-05-25T13:58:59.100Z,46.50
2023-05-25T14:01:29.469Z,46.37
2023-05-25T14:03:58.029Z,43.92
2023-05-25T14:06:29.077Z,43.40
2023-05-25T14:08:57.166Z,42.94
2023-05-25T14:11:28.495Z,42.63
2023-05-25T14:13:56.347Z,42.51
2023-05-25T14:16:23.911Z,42.39
2023-05-25T14:18:51.606Z,42.26
2023-05-25T14:21:19.293Z,42.61
2023-05-25T14:23:46.836Z,43.69
2023-05-25T14:26:14.451Z,44.34
2023-05-25T14:28:42.416Z,44.47
2023-05-25T14:31:10.218Z,45.68
2023-05-25T14:33:38.726Z,46.11
2023-05-25T14:36:06.864Z,45.41
2023-05-25T14:38:34.379Z,45.62
2023-05-25T14:41:02.018Z,45.91
2023-05-25T14:43:31.109Z,46.25
2023-05-25T14:45:58.744Z,45.56
2023-05-25T14:48:26.917Z,45.26
2023-05-25T14:50:54.439Z,45.34
2023-05-25T15:08:14.998Z,48.02
2023-05-25T15:10:42.371Z,48.64
2023-05-25T15:13:10.355Z,48.25
2023-05-25T15:15:39.580Z,49.27
2023-05-25T15:18:07.435Z,49.88
2023-05-25T15:20:34.923Z,50.48
2023-05-25T15:23:02.501Z,51.09
2023-05-25T15:25:34.900Z,51.21
2023-05-25T15:28:03.488Z,51.99
2023-05-25T15:30:33.269Z,52.72
2023-05-25T15:33:01.584Z,53.07
2023-05-25T15:35:32.530Z,53.65
2023-05-25T15:38:00.436Z,54.32
2023-05-25T15:40:27.930Z,53.98
2023-05-25T15:42:55.443Z,53.38
2023-05-25T15:45:22.977Z,53.25
2023-05-25T15:47:50.730Z,53.69
2023-05-25T15:50:18.238Z,53.99
2023-05-25T15:52:46.794Z,54.15
2023-05-25T15:55:14.278Z,54.28
2023-05-25T15:57:41.632Z,54.75
2023-05-25T16:00:09.620Z,55.27
2023-05-25T16:02:37.095Z,54.27
2023-05-25T16:05:07.305Z,53.86
2023-05-25T16:07:34.875Z,54.10
2023-05-25T16:10:02.480Z,54.16
2023-05-25T16:12:30.321Z,54.17
2023-05-25T16:14:57.778Z,54.43
2023-05-25T16:17:25.257Z,54.78
2023-05-25T16:19:52.730Z,55.15
2023-05-25T16:22:20.166Z,55.55
2023-05-25T16:24:47.613Z,55.79
2023-05-25T16:27:15.292Z,55.95
2023-05-25T16:29:42.921Z,56.29
2023-05-25T16:32:10.474Z,56.36
2023-05-25T16:34:38.208Z,56.55
2023-05-25T16:37:05.622Z,56.78
2023-05-25T16:39:33.469Z,56.41
2023-05-25T16:42:00.906Z,55.84
2023-05-25T16:44:28.519Z,55.88
2023-05-25T16:46:56.025Z,55.73
2023-05-25T16:49:23.508Z,56.09
2023-05-25T16:51:51.091Z,56.45
2023-05-25T16:54:18.606Z,56.78
2023-05-25T16:56:46.275Z,57.35
2023-05-25T16:59:13.760Z,57.49
2023-05-25T17:01:41.365Z,58.20
2023-05-25T17:04:09.033Z,58.26
2023-05-25T17:06:37.590Z,58.56
2023-05-25T17:09:08.699Z,59.00
2023-05-25T17:11:36.156Z,59.29
2023-05-25T17:14:03.699Z,59.37
2023-05-25T17:16:31.427Z,59.69
2023-05-25T17:18:59.032Z,60.37
2023-05-25T17:21:27.217Z,60.52
2023-05-25T17:23:54.800Z,60.59
2023-05-25T17:26:22.822Z,60.85
2023-05-25T17:28:50.533Z,61.97
2023-05-25T17:31:18.005Z,61.28
2023-05-25T17:33:45.569Z,60.74
2023-05-25T17:36:13.367Z,59.89
2023-05-25T17:38:43.723Z,60.26
2023-05-25T17:41:11.533Z,62.11
2023-05-25T17:43:39.032Z,62.84
2023-05-25T17:46:06.773Z,62.97
2023-05-25T17:48:34.416Z,62.85
2023-05-25T17:51:01.880Z,63.03
2023-05-25T17:53:29.419Z,62.96
2023-05-25T17:55:56.889Z,63.07
2023-05-25T17:58:24.554Z,62.98
2023-05-25T18:00:52.411Z,63.19
2023-05-25T18:03:19.952Z,63.39
2023-05-25T18:05:47.499Z,63.81
2023-05-25T18:08:15.001Z,64.36
2023-05-25T18:10:42.478Z,64.95
2023-05-25T18:13:10.106Z,65.40
2023-05-25T18:15:37.674Z,65.60
2023-05-25T18:18:06.039Z,65.68
2023-05-25T18:20:33.508Z,65.70
2023-05-25T18:23:01.430Z,65.99
2023-05-25T18:25:28.882Z,66.05
2023-05-25T18:27:56.512Z,66.32
2023-05-25T18:30:24.004Z,66.66
2023-05-25T18:32:51.889Z,66.89
2023-05-25T18:35:19.450Z,67.11
2023-05-25T18:37:49.899Z,67.48
2023-05-25T18:40:17.419Z,67.74
2023-05-25T18:42:44.815Z,68.36
2023-05-25T18:45:12.235Z,69.09
2023-05-25T18:47:39.704Z,69.32
2023-05-25T18:50:07.390Z,69.45
2023-05-25T18:52:34.802Z,69.64
2023-05-25T18:55:02.243Z,69.74
2023-05-25T18:57:29.741Z,69.70
2023-05-25T18:59:57.165Z,70.12
2023-05-25T19:02:24.798Z,70.74
2023-05-25T19:04:53.158Z,71.24
2023-05-25T19:07:20.618Z,71.62
2023-05-25T19:09:48.233Z,72.19
2023-05-25T19:12:15.732Z,72.39
2023-05-25T19:14:43.251Z,72.80
2023-05-25T19:17:10.941Z,73.34
2023-05-25T19:19:38.448Z,73.56
2023-05-25T19:22:06.629Z,73.86
2023-05-25T19:24:34.011Z,74.25
2023-05-25T19:27:01.899Z,74.66
2023-05-25T19:29:29.394Z,74.75
2023-05-25T19:31:56.916Z,74.84
2023-05-25T19:34:24.394Z,74.85
2023-05-25T19:37:00.069Z,74.79
2023-05-25T19:39:31.874Z,74.45
2023-05-25T19:41:59.968Z,73.94
2023-05-25T19:44:27.367Z,73.31
2023-05-25T19:46:55.187Z,72.55
2023-05-25T19:49:22.777Z,71.90
2023-05-25T19:51:50.348Z,71.61
2023-05-25T19:54:18.098Z,71.40
2023-05-25T19:56:45.703Z,71.37
2023-05-25T19:59:13.228Z,71.29
2023-05-25T20:01:40.809Z,71.13
2023-05-25T20:04:08.246Z,71.20
2023-05-25T20:06:37.445Z,71.24
2023-05-25T20:09:05.204Z,71.33
2023-05-25T20:11:32.619Z,71.45
2023-05-25T20:14:02.455Z,71.63
2023-05-25T20:16:30.010Z,71.68
2023-05-25T20:18:57.632Z,71.84
2023-05-25T20:21:25.278Z,71.86
2023-05-25T20:23:52.867Z,71.99
2023-05-25T20:26:20.412Z,72.12
2023-05-25T20:28:48.010Z,72.30
2023-05-25T20:31:15.730Z,72.41
2023-05-25T20:33:43.312Z,72.66
2023-05-25T20:36:10.790Z,72.80
2023-05-25T20:38:38.296Z,73.05
2023-05-25T20:41:05.713Z,73.18
2023-05-25T20:43:33.094Z,73.45
2023-05-25T20:46:00.791Z,73.46
2023-05-25T20:48:28.262Z,73.58
2023-05-25T20:50:55.927Z,73.81
2023-05-25T20:53:23.378Z,74.24
2023-05-25T20:55:51.976Z,74.79
2023-05-25T20:58:19.456Z,75.32
2023-05-25T21:00:47.157Z,75.73
2023-05-25T21:03:15.066Z,76.22
2023-05-25T21:05:43.254Z,76.83
2023-05-25T21:08:14.229Z,77.15
2023-05-25T21:10:41.747Z,77.72
2023-05-25T21:13:09.420Z,78.22
2023-05-25T21:15:36.916Z,78.71
2023-05-25T21:18:05.849Z,79.25
2023-05-25T21:20:33.526Z,79.75
2023-05-25T21:23:02.623Z,80.33
2023-05-25T21:25:30.249Z,80.90
2023-05-25T21:27:59.159Z,81.81
2023-05-25T21:30:26.694Z,82.26
2023-05-25T21:32:54.319Z,82.65
2023-05-25T21:35:21.818Z,83.05
2023-05-25T21:37:49.260Z,83.81
2023-05-25T21:40:16.848Z,85.04
2023-05-25T21:42:47.767Z,85.89
2023-05-25T21:45:16.277Z,87.48
2023-05-25T21:47:43.720Z,88.27
2023-05-25T21:50:11.229Z,88.75
2023-05-25T21:52:38.748Z,88.76
2023-05-25T21:55:06.738Z,88.61
2023-05-25T21:57:34.165Z,88.20
2023-05-25T22:00:01.670Z,88.01
2023-05-25T22:02:29.224Z,87.96
2023-05-25T22:04:56.725Z,88.05
2023-05-25T22:07:24.245Z,88.36
2023-05-25T22:09:54.188Z,87.93
2023-05-25T22:12:21.879Z,88.11
2023-05-25T22:14:49.900Z,88.21
2023-05-25T22:17:19.122Z,87.93
2023-05-25T22:19:55.272Z,87.47
2023-05-25T22:22:29.603Z,87.79
2023-05-25T22:24:57.193Z,87.92
2023-05-25T22:27:24.702Z,87.72
2023-05-25T22:29:52.390Z,87.71
2023-05-25T22:32:20.085Z,87.74
2023-05-25T22:34:47.541Z,87.85
2023-05-25T22:37:16.295Z,88.22
2023-05-25T22:39:43.874Z,88.38
2023-05-25T22:42:11.343Z,88.46
2023-05-25T22:44:38.754Z,88.56
2023-05-25T22:47:06.642Z,88.65
2023-05-25T22:49:41.234Z,88.46
2023-05-25T22:52:10.575Z,88.34
2023-05-25T22:54:38.003Z,88.02
2023-05-25T22:57:06.490Z,87.80
2023-05-25T22:59:33.991Z,88.05
2023-05-25T23:02:01.425Z,88.68
2023-05-25T23:04:29.088Z,89.00
2023-05-25T23:06:56.508Z,89.20
2023-05-25T23:09:23.868Z,89.36
2023-05-25T23:11:51.303Z,89.59
2023-05-25T23:14:18.808Z,89.91
2023-05-25T23:16:48.753Z,90.35
2023-05-25T23:19:16.933Z,90.65
2023-05-25T23:21:44.441Z,90.98
2023-05-25T23:24:11.911Z,90.97
2023-05-25T23:26:39.408Z,91.14
2023-05-25T23:29:06.863Z,91.13
2023-05-25T23:31:34.476Z,91.18
2023-05-25T23:34:01.916Z,91.36
2023-05-25T23:36:29.472Z,91.44
2023-05-25T23:38:56.975Z,91.42
2023-05-25T23:41:25.358Z,91.57
2023-05-25T23:43:52.673Z,91.67
2023-05-25T23:46:20.121Z,91.90
2023-05-25T23:48:47.670Z,92.22
